Alice, North Dakota
Current Conditions -  °F | °C
As of 4:15 PM on Sunday 25 Jan 2015 (Local Time) from KGWR Reporting Station
Overcast Overcast  
Wind Chill: 20°   Ceiling: 2000
Heat Index: 28°   Visibility: 10mi
Dew Point: 27°   Wind: 8mph
Humidity: 93%   Direction: 210°SSW
Pressure: 30"   Gusts: NA
Location:  46.7681°N, 97.6777°W
Report Text: KGWR 252215Z AUTO 21007KT 10SM OVC020 M02/M03 A3000 RMK A01 P000
Loading
Personal Weather Stations






























Interactive Weather Map New forecast layout! Learn more

10-Day Weather Forecast

Advertisements
Track Severe Weather on mobile